createdAt,value
2017-03-17T00:00:50.209Z,3.86
2017-03-17T00:01:50.320Z,3.97
2017-03-17T00:02:50.273Z,3.92
2017-03-17T00:03:50.364Z,3.92
2017-03-17T00:04:50.503Z,3.9
2017-03-17T00:05:50.556Z,3.92
2017-03-17T00:06:50.388Z,3.92
2017-03-17T00:07:50.375Z,3.94
2017-03-17T00:08:50.417Z,3.89
2017-03-17T00:09:50.430Z,3.86
2017-03-17T00:10:50.943Z,3.9
2017-03-17T00:11:51.462Z,3.93
2017-03-17T00:12:51.502Z,3.9
2017-03-17T00:13:51.515Z,3.89
2017-03-17T00:14:52.065Z,3.96
2017-03-17T00:15:52.088Z,3.9
2017-03-17T00:16:52.085Z,3.89
2017-03-17T00:17:52.117Z,3.92
2017-03-17T00:18:52.166Z,3.89
2017-03-17T00:19:52.208Z,3.84
2017-03-17T00:20:52.190Z,3.84
2017-03-17T00:21:52.219Z,3.76
2017-03-17T00:22:52.783Z,3.79
2017-03-17T00:23:52.780Z,3.81
2017-03-17T00:24:52.780Z,3.84
2017-03-17T00:25:53.314Z,3.89
2017-03-17T00:26:53.348Z,3.9
2017-03-17T00:27:54.112Z,3.89
2017-03-17T00:28:54.101Z,3.92
2017-03-17T00:29:54.641Z,3.89
2017-03-17T00:30:54.649Z,3.94
2017-03-17T00:31:55.191Z,3.93
2017-03-17T00:32:55.219Z,3.89
2017-03-17T00:33:55.421Z,3.89
2017-03-17T00:34:55.243Z,3.94
2017-03-17T00:35:55.792Z,3.86
2017-03-17T00:36:55.853Z,3.86
2017-03-17T00:37:55.822Z,3.92
2017-03-17T00:38:55.849Z,3.93
2017-03-17T00:39:56.400Z,3.89
2017-03-17T00:40:56.401Z,3.9
2017-03-17T00:41:56.902Z,3.9
2017-03-17T00:42:56.965Z,3.93
2017-03-17T00:43:56.971Z,3.94
2017-03-17T00:44:57.017Z,3.89
2017-03-17T00:45:57.039Z,3.81
2017-03-17T00:46:57.030Z,3.79
2017-03-17T00:47:57.070Z,3.82
2017-03-17T00:48:57.093Z,3.75
2017-03-17T00:49:57.644Z,3.74
2017-03-17T00:50:57.654Z,3.75
2017-03-17T00:51:57.692Z,3.75
2017-03-17T00:52:57.677Z,3.72
2017-03-17T00:53:57.742Z,3.78
2017-03-17T00:54:57.732Z,3.78
2017-03-17T00:55:57.960Z,3.78
2017-03-17T00:56:57.792Z,3.79
2017-03-17T00:57:58.313Z,3.78
2017-03-17T00:58:58.330Z,3.81
2017-03-17T00:59:58.344Z,3.79
2017-03-17T01:00:58.843Z,3.81
2017-03-17T01:01:59.360Z,3.85
2017-03-17T01:02:59.898Z,3.89
2017-03-17T01:04:00.150Z,3.89
2017-03-17T01:04:59.963Z,3.89
2017-03-17T01:06:00.013Z,3.92
2017-03-17T01:07:00.011Z,3.86
2017-03-17T01:08:00.083Z,3.9
2017-03-17T01:09:00.106Z,3.92
2017-03-17T01:10:00.098Z,3.93
2017-03-17T01:11:00.306Z,3.96
2017-03-17T01:12:00.154Z,3.9
2017-03-17T01:13:00.166Z,3.92
2017-03-17T01:14:00.209Z,3.82
2017-03-17T01:15:00.213Z,3.86
2017-03-17T01:16:00.726Z,3.94
2017-03-17T01:17:00.296Z,3.9
2017-03-17T01:18:00.296Z,3.89
2017-03-17T01:19:00.327Z,3.92
2017-03-17T01:20:00.553Z,3.92
2017-03-17T01:21:00.411Z,3.92
2017-03-17T01:22:00.404Z,3.84
2017-03-17T01:23:00.981Z,3.86
2017-03-17T01:24:01.020Z,3.93
2017-03-17T01:25:01.074Z,3.86
2017-03-17T01:26:01.010Z,3.89
2017-03-17T01:27:01.074Z,3.85
2017-03-17T01:28:01.077Z,3.93
2017-03-17T01:29:01.359Z,3.85
2017-03-17T01:30:01.114Z,3.84
2017-03-17T01:31:01.142Z,3.81
2017-03-17T01:32:01.213Z,3.84
2017-03-17T01:33:01.204Z,3.75
2017-03-17T01:34:01.216Z,3.72
2017-03-17T01:35:01.292Z,3.76
2017-03-17T01:36:01.277Z,3.76
2017-03-17T01:37:01.804Z,3.69
2017-03-17T01:38:01.834Z,3.67
2017-03-17T01:39:02.389Z,3.74
2017-03-17T01:40:02.414Z,3.72
2017-03-17T01:41:02.403Z,3.84
2017-03-17T01:42:02.441Z,3.82
2017-03-17T01:43:02.469Z,3.75
2017-03-17T01:44:03.014Z,3.79
2017-03-17T01:45:03.043Z,3.75
2017-03-17T01:46:03.569Z,3.72
2017-03-17T01:47:04.108Z,3.75
2017-03-17T01:48:04.127Z,3.79
2017-03-17T01:49:04.201Z,3.75
2017-03-17T01:50:04.235Z,3.79
2017-03-17T01:51:04.215Z,3.82
2017-03-17T01:52:04.251Z,3.79
2017-03-17T01:53:04.259Z,3.78
2017-03-17T01:54:04.806Z,3.72
2017-03-17T01:55:04.833Z,3.75
2017-03-17T01:56:04.901Z,3.72
2017-03-17T01:57:04.876Z,3.76
2017-03-17T01:58:04.866Z,3.71
2017-03-17T01:59:05.425Z,3.74
2017-03-17T02:00:05.447Z,3.74
2017-03-17T02:01:06.133Z,3.72
2017-03-17T02:02:06.035Z,3.74
2017-03-17T02:03:06.063Z,3.67
2017-03-17T02:04:06.098Z,3.69
2017-03-17T02:05:06.103Z,3.66
2017-03-17T02:06:06.151Z,3.64
2017-03-17T02:07:06.155Z,3.53
2017-03-17T02:08:06.685Z,3.63
2017-03-17T02:09:06.736Z,3.72
2017-03-17T02:10:06.735Z,3.67
2017-03-17T02:11:06.735Z,3.76
2017-03-17T02:12:06.879Z,3.82
2017-03-17T02:13:06.804Z,3.72
2017-03-17T02:14:06.845Z,3.75
2017-03-17T02:15:07.054Z,3.75
2017-03-17T02:16:06.863Z,3.72
2017-03-17T02:17:07.433Z,3.74
2017-03-17T02:18:07.526Z,3.82
2017-03-17T02:19:07.456Z,3.75
2017-03-17T02:20:08.512Z,3.74
2017-03-17T02:21:07.998Z,3.78
2017-03-17T02:22:08.005Z,3.85
2017-03-17T02:23:09.197Z,3.86
2017-03-17T02:24:09.206Z,3.89
2017-03-17T02:25:09.623Z,3.85
2017-03-17T02:26:09.273Z,3.84
2017-03-17T02:27:09.325Z,3.82
2017-03-17T02:28:09.310Z,3.75
2017-03-17T02:29:09.329Z,3.75
2017-03-17T02:30:09.852Z,3.67
2017-03-17T02:31:09.924Z,3.82
2017-03-17T02:32:09.912Z,3.75
2017-03-17T02:33:09.911Z,3.66
2017-03-17T02:34:10.661Z,3.66
2017-03-17T02:35:10.455Z,3.72
2017-03-17T02:36:10.510Z,3.79
2017-03-17T02:37:10.531Z,3.81
2017-03-17T02:38:10.537Z,3.9
2017-03-17T02:39:11.215Z,3.94
2017-03-17T02:40:11.245Z,3.86
2017-03-17T02:41:11.226Z,3.9
2017-03-17T02:42:11.287Z,3.85
2017-03-17T02:43:11.283Z,3.86
2017-03-17T02:44:11.336Z,3.89
2017-03-17T02:45:11.336Z,3.96
2017-03-17T02:46:11.357Z,3.92
2017-03-17T02:47:11.420Z,3.93
2017-03-17T02:48:11.420Z,3.9
2017-03-17T02:49:11.423Z,3.93
2017-03-17T02:50:11.493Z,3.93
2017-03-17T02:51:11.486Z,3.86
2017-03-17T02:52:11.641Z,3.93
2017-03-17T02:53:11.560Z,3.94
2017-03-17T02:54:11.580Z,3.92
2017-03-17T02:55:11.632Z,3.9
2017-03-17T02:56:11.610Z,3.86
2017-03-17T02:57:12.139Z,3.85
2017-03-17T02:58:12.196Z,3.89
2017-03-17T02:59:12.231Z,3.92
2017-03-17T03:00:12.215Z,3.9
2017-03-17T03:01:12.269Z,3.92
2017-03-17T03:02:12.293Z,3.79
2017-03-17T03:03:12.287Z,3.78
2017-03-17T03:04:12.320Z,3.75
2017-03-17T03:05:12.854Z,3.79
2017-03-17T03:06:12.905Z,3.75
2017-03-17T03:07:12.903Z,3.79
2017-03-17T03:08:12.906Z,3.82
2017-03-17T03:09:13.468Z,3.78
2017-03-17T03:10:14.003Z,3.81
2017-03-17T03:11:14.516Z,3.76
2017-03-17T03:12:14.544Z,3.74
2017-03-17T03:13:15.114Z,3.74
2017-03-17T03:14:15.123Z,3.75
2017-03-17T03:15:15.123Z,3.71
2017-03-17T03:16:15.626Z,3.79
2017-03-17T03:17:16.171Z,3.78
2017-03-17T03:18:16.255Z,3.82
2017-03-17T03:19:16.250Z,3.78
2017-03-17T03:20:16.241Z,3.76
2017-03-17T03:21:16.304Z,3.76
2017-03-17T03:22:16.367Z,3.78
2017-03-17T03:23:16.353Z,3.66
2017-03-17T03:24:16.373Z,3.66
2017-03-17T03:25:16.517Z,3.64
2017-03-17T03:26:16.387Z,3.67
2017-03-17T03:27:16.425Z,3.67
2017-03-17T03:28:16.475Z,3.61
2017-03-17T03:29:16.466Z,3.64
2017-03-17T03:30:17.096Z,3.66
2017-03-17T03:31:17.011Z,3.58
2017-03-17T03:32:17.516Z,3.67
2017-03-17T03:33:17.553Z,3.6
2017-03-17T03:34:17.569Z,3.78
2017-03-17T03:35:17.706Z,3.79
2017-03-17T03:36:17.635Z,3.76
2017-03-17T03:37:17.677Z,3.76
2017-03-17T03:38:17.681Z,3.67
2017-03-17T03:39:17.848Z,3.71
2017-03-17T03:40:17.725Z,3.72
2017-03-17T03:41:17.796Z,3.72
2017-03-17T03:42:17.777Z,3.66
2017-03-17T03:43:17.805Z,3.67
2017-03-17T03:44:17.834Z,3.74
2017-03-17T03:45:17.896Z,3.61
2017-03-17T03:46:17.882Z,3.63
2017-03-17T03:47:17.993Z,3.64
2017-03-17T03:48:17.954Z,3.63
2017-03-17T03:49:17.993Z,3.54
2017-03-17T03:50:17.978Z,3.51
2017-03-17T03:51:18.536Z,3.51
2017-03-17T03:52:18.672Z,3.69
2017-03-17T03:53:18.584Z,3.6
2017-03-17T03:54:19.111Z,3.69
2017-03-17T03:55:19.144Z,3.57
2017-03-17T03:56:19.194Z,3.49
2017-03-17T03:57:19.175Z,3.49
2017-03-17T03:58:19.216Z,3.51
2017-03-17T03:59:19.731Z,3.57
2017-03-17T04:00:19.780Z,3.58
2017-03-17T04:01:19.777Z,3.56
2017-03-17T04:02:19.795Z,3.56
2017-03-17T04:03:20.335Z,3.57
2017-03-17T04:04:20.376Z,3.53
2017-03-17T04:05:20.502Z,3.53
2017-03-17T04:06:20.531Z,3.48
2017-03-17T04:07:20.426Z,3.48
2017-03-17T04:08:20.987Z,3.57
2017-03-17T04:09:20.970Z,3.48
2017-03-17T04:10:21.026Z,3.51
2017-03-17T04:11:21.024Z,3.53
2017-03-17T04:12:21.061Z,3.56
2017-03-17T04:13:21.107Z,3.6
2017-03-17T04:14:21.143Z,3.54
2017-03-17T04:15:21.158Z,3.56
2017-03-17T04:16:21.152Z,3.54
2017-03-17T04:17:21.171Z,3.48
2017-03-17T04:18:21.203Z,3.51
2017-03-17T04:19:21.262Z,3.57
2017-03-17T04:20:21.287Z,3.49
2017-03-17T04:21:21.316Z,3.49
2017-03-17T04:22:21.375Z,3.58
2017-03-17T04:23:21.343Z,3.58
2017-03-17T04:24:21.369Z,3.6
2017-03-17T04:25:21.396Z,3.58
2017-03-17T04:26:21.949Z,3.64
2017-03-17T04:27:21.944Z,3.61
2017-03-17T04:28:21.952Z,3.66
2017-03-17T04:29:21.984Z,3.63
2017-03-17T04:30:21.999Z,3.64
2017-03-17T04:31:22.528Z,3.57
2017-03-17T04:32:23.078Z,3.53
2017-03-17T04:33:23.077Z,3.49
2017-03-17T04:34:23.185Z,3.54
2017-03-17T04:35:23.114Z,3.48
2017-03-17T04:36:23.638Z,3.46
2017-03-17T04:37:23.692Z,3.42
2017-03-17T04:38:23.721Z,3.49
2017-03-17T04:39:23.714Z,3.48
2017-03-17T04:40:23.768Z,3.56
2017-03-17T04:41:23.754Z,3.61
2017-03-17T04:42:24.312Z,3.64
2017-03-17T04:43:24.305Z,3.64
2017-03-17T04:44:24.335Z,3.61
2017-03-17T04:45:24.359Z,3.66
2017-03-17T04:46:24.379Z,3.61
2017-03-17T04:47:24.946Z,3.61
2017-03-17T04:48:24.946Z,3.63
2017-03-17T04:49:24.955Z,3.69
2017-03-17T04:50:25.527Z,3.63
2017-03-17T04:51:25.540Z,3.66
2017-03-17T04:52:25.621Z,3.63
2017-03-17T04:53:25.598Z,3.66
2017-03-17T04:54:25.635Z,3.69
2017-03-17T04:55:25.621Z,3.67
2017-03-17T04:56:26.201Z,3.72
2017-03-17T04:57:26.177Z,3.76
2017-03-17T04:58:26.188Z,3.67
2017-03-17T04:59:26.754Z,3.64
2017-03-17T05:00:26.965Z,3.66
2017-03-17T05:01:27.386Z,3.61
2017-03-17T05:02:27.773Z,3.6
2017-03-17T05:03:28.179Z,3.56
2017-03-17T05:04:28.572Z,3.49
2017-03-17T05:05:28.955Z,3.56
2017-03-17T05:06:29.373Z,3.49
2017-03-17T05:07:29.766Z,3.46
2017-03-17T05:08:30.157Z,3.51
2017-03-17T05:09:30.539Z,3.43
2017-03-17T05:10:30.935Z,3.45
2017-03-17T05:11:31.331Z,3.43
2017-03-17T05:12:31.717Z,3.42
2017-03-17T05:13:32.132Z,3.39
2017-03-17T05:14:32.531Z,3.43
2017-03-17T05:15:32.921Z,3.37
2017-03-17T05:16:33.324Z,3.37
2017-03-17T05:17:33.714Z,3.42
2017-03-17T05:18:34.103Z,3.34
2017-03-17T05:19:34.500Z,3.34
2017-03-17T05:20:34.898Z,3.4
2017-03-17T05:21:35.277Z,3.51
2017-03-17T05:22:35.669Z,3.48
2017-03-17T05:23:36.068Z,3.58
2017-03-17T05:24:36.461Z,3.75
2017-03-17T05:25:36.845Z,3.67
2017-03-17T05:26:37.244Z,3.74
2017-03-17T05:27:37.640Z,3.72
2017-03-17T05:28:38.042Z,3.84
2017-03-17T05:29:38.438Z,3.92
2017-03-17T05:30:38.813Z,3.89
2017-03-17T05:31:39.210Z,3.85
2017-03-17T05:32:39.610Z,3.93
2017-03-17T05:33:40.002Z,3.9
2017-03-17T05:34:40.397Z,3.94
2017-03-17T05:35:40.787Z,3.94
2017-03-17T05:36:41.181Z,3.94
2017-03-17T05:37:41.586Z,3.97
2017-03-17T05:38:41.988Z,3.96
2017-03-17T05:39:42.413Z,3.99
2017-03-17T05:40:42.802Z,3.96
2017-03-17T05:41:43.204Z,4.04
2017-03-17T05:42:43.598Z,4.17
2017-03-17T05:43:44.010Z,4.18
2017-03-17T05:44:44.425Z,4.26
2017-03-17T05:45:44.821Z,4.35
2017-03-17T05:46:45.214Z,4.53
2017-03-17T05:47:45.616Z,4.65
2017-03-17T05:48:46.010Z,4.75
2017-03-17T05:49:46.402Z,4.9
2017-03-17T05:50:46.799Z,4.88
2017-03-17T05:51:47.199Z,4.9
2017-03-17T05:52:47.599Z,4.88
2017-03-17T05:53:48.002Z,5.06
2017-03-17T05:54:48.435Z,5.03
2017-03-17T05:55:48.836Z,5.12
2017-03-17T05:56:49.231Z,5.16
2017-03-17T05:57:49.629Z,5.28
2017-03-17T05:58:50.029Z,5.39
2017-03-17T05:59:50.430Z,5.42
2017-03-17T06:00:50.829Z,5.48
2017-03-17T06:01:51.228Z,5.57
2017-03-17T06:02:51.617Z,5.52
2017-03-17T06:03:52.016Z,5.59
2017-03-17T06:04:52.425Z,5.59
2017-03-17T06:05:52.829Z,5.6
2017-03-17T06:06:53.224Z,5.62
2017-03-17T06:07:53.622Z,5.63
2017-03-17T06:08:54.018Z,5.55
2017-03-17T06:09:54.422Z,5.48
2017-03-17T06:10:54.836Z,5.46
2017-03-17T06:11:55.217Z,5.44
2017-03-17T06:12:55.613Z,5.34
2017-03-17T06:13:56.528Z,5.37
2017-03-17T06:14:56.536Z,5.44
2017-03-17T06:15:56.556Z,5.52
2017-03-17T06:16:56.588Z,5.59
2017-03-17T06:17:56.601Z,5.67
2017-03-17T06:18:56.641Z,5.77
2017-03-17T06:19:56.673Z,5.82
2017-03-17T06:20:56.712Z,5.99
2017-03-17T06:21:56.707Z,6.17
2017-03-17T06:22:56.748Z,6.26
2017-03-17T06:23:56.777Z,6.37
2017-03-17T06:24:56.810Z,6.61
2017-03-17T06:25:56.835Z,6.76
2017-03-17T06:26:56.862Z,6.83
2017-03-17T06:27:56.897Z,6.95
2017-03-17T06:28:56.917Z,7.03
2017-03-17T06:29:56.939Z,6.93
2017-03-17T06:30:56.974Z,7.11
2017-03-17T06:31:57.001Z,7.16
2017-03-17T06:32:57.037Z,7.34
2017-03-17T06:33:57.063Z,7.33
2017-03-17T06:34:57.094Z,7.31
2017-03-17T06:35:57.099Z,7.48
2017-03-17T06:36:57.144Z,7.56
2017-03-17T06:37:57.182Z,7.52
2017-03-17T06:38:57.211Z,7.68
2017-03-17T06:39:57.237Z,7.71
2017-03-17T06:40:57.267Z,7.83
2017-03-17T06:41:57.287Z,7.95
2017-03-17T06:42:57.317Z,8.06
2017-03-17T06:43:57.348Z,8.03
2017-03-17T06:44:57.375Z,8.16
2017-03-17T06:45:57.398Z,8.11
2017-03-17T06:46:57.425Z,8.13
2017-03-17T06:47:57.448Z,8.29
2017-03-17T06:48:57.488Z,8.29
2017-03-17T06:49:57.503Z,8.36
2017-03-17T06:50:57.535Z,8.35
2017-03-17T06:51:57.568Z,8.35
2017-03-17T06:52:57.607Z,8.39
2017-03-17T06:53:57.627Z,8.39
2017-03-17T06:54:57.656Z,8.39
2017-03-17T06:55:57.685Z,8.42
2017-03-17T06:56:57.748Z,8.4
2017-03-17T06:57:57.749Z,8.32
2017-03-17T06:58:57.772Z,8.36
2017-03-17T06:59:57.806Z,8.43
2017-03-17T07:00:57.832Z,8.39
2017-03-17T07:01:57.855Z,8.43
2017-03-17T07:02:57.899Z,8.4
2017-03-17T07:03:57.906Z,8.47
2017-03-17T07:04:57.951Z,8.54
2017-03-17T07:05:57.962Z,8.5
2017-03-17T07:06:58.004Z,8.53
2017-03-17T07:07:58.033Z,8.57
2017-03-17T07:08:58.045Z,8.57
2017-03-17T07:09:58.089Z,8.58
2017-03-17T07:10:58.117Z,8.65
2017-03-17T07:11:58.142Z,8.57
2017-03-17T07:12:58.173Z,8.54
2017-03-17T07:13:58.207Z,8.6
2017-03-17T07:14:58.240Z,8.52
2017-03-17T07:15:58.263Z,8.53
2017-03-17T07:16:58.291Z,8.49
2017-03-17T07:17:58.307Z,8.57
2017-03-17T07:18:58.350Z,8.52
2017-03-17T07:19:58.377Z,8.53
2017-03-17T07:20:58.396Z,8.5
2017-03-17T07:21:58.428Z,8.47
2017-03-17T07:22:58.486Z,8.52
2017-03-17T07:23:58.485Z,8.46
2017-03-17T07:24:58.511Z,8.52
2017-03-17T07:25:58.550Z,8.49
2017-03-17T07:26:58.573Z,8.47
2017-03-17T07:27:58.619Z,8.5
2017-03-17T07:28:58.639Z,8.5
2017-03-17T07:29:58.667Z,8.5
2017-03-17T07:30:59.038Z,8.52
2017-03-17T07:31:58.714Z,8.54
2017-03-17T07:32:58.750Z,8.54
2017-03-17T07:33:58.790Z,8.65
2017-03-17T07:34:58.806Z,8.53
2017-03-17T07:35:58.990Z,8.65
2017-03-17T07:36:58.871Z,8.62
2017-03-17T07:37:58.899Z,8.62
2017-03-17T07:38:58.939Z,8.65
2017-03-17T07:39:58.956Z,8.74
2017-03-17T07:40:59.069Z,8.79
2017-03-17T07:41:59.013Z,8.8
2017-03-17T07:42:59.049Z,8.85
2017-03-17T07:43:59.067Z,8.9
2017-03-17T07:44:59.106Z,9
2017-03-17T07:45:59.126Z,8.97
2017-03-17T07:46:59.145Z,9.04
2017-03-17T07:47:59.187Z,9.19
2017-03-17T07:48:59.219Z,9.14
2017-03-17T07:49:59.245Z,9.2
2017-03-17T07:50:59.270Z,9.27
2017-03-17T07:51:59.306Z,9.32
2017-03-17T07:52:59.337Z,9.34
2017-03-17T07:53:59.366Z,9.38
2017-03-17T07:54:59.392Z,9.42
2017-03-17T07:55:59.410Z,9.47
2017-03-17T07:56:59.451Z,9.59
2017-03-17T07:57:59.477Z,9.62
2017-03-17T07:58:59.500Z,9.7
2017-03-17T07:59:59.550Z,9.78
2017-03-17T08:00:59.565Z,9.85
2017-03-17T08:01:59.600Z,9.92
2017-03-17T08:02:59.632Z,9.93
2017-03-17T08:03:59.664Z,9.98
2017-03-17T08:04:59.691Z,9.99
2017-03-17T08:05:59.771Z,9.93
2017-03-17T08:06:59.757Z,10.05
2017-03-17T08:07:59.783Z,10.1
2017-03-17T08:08:59.811Z,10.21
2017-03-17T08:09:59.841Z,10.23
2017-03-17T08:10:59.868Z,10.44
2017-03-17T08:11:59.895Z,10.39
2017-03-17T08:12:59.935Z,10.59
2017-03-17T08:13:59.963Z,10.57
2017-03-17T08:14:59.991Z,10.65
2017-03-17T08:16:00.020Z,10.69
2017-03-17T08:17:00.045Z,10.72
2017-03-17T08:18:00.081Z,10.72
2017-03-17T08:19:00.107Z,10.8
2017-03-17T08:20:00.140Z,10.9
2017-03-17T08:21:00.168Z,11.1
2017-03-17T08:22:00.199Z,11.15
2017-03-17T08:23:00.246Z,11.16
2017-03-17T08:24:00.259Z,11.27
2017-03-17T08:25:00.314Z,11.42
2017-03-17T08:26:00.315Z,11.41
2017-03-17T08:27:00.360Z,11.51
2017-03-17T08:28:00.396Z,11.63
2017-03-17T08:29:00.401Z,11.81
2017-03-17T08:30:00.444Z,11.82
2017-03-17T08:31:00.475Z,12.04
2017-03-17T08:32:00.508Z,12.25
2017-03-17T08:33:00.542Z,12.43
2017-03-17T08:34:00.569Z,12.56
2017-03-17T08:35:00.598Z,12.61
2017-03-17T08:36:00.629Z,12.56
2017-03-17T08:37:00.666Z,12.71
2017-03-17T08:38:00.703Z,12.94
2017-03-17T08:39:00.714Z,13.68
2017-03-17T08:40:00.762Z,14.59
2017-03-17T08:41:00.795Z,15.56
2017-03-17T08:42:00.818Z,16.13
2017-03-17T08:43:00.862Z,16.69
2017-03-17T08:44:00.887Z,17
2017-03-17T08:45:00.938Z,17.05
2017-03-17T08:46:00.945Z,17.13
2017-03-17T08:47:00.980Z,17.13
2017-03-17T08:48:01.019Z,16.99
2017-03-17T08:49:01.065Z,16.92
2017-03-17T08:50:01.085Z,17.17
2017-03-17T08:51:01.124Z,17.54
2017-03-17T08:52:01.155Z,18.16
2017-03-17T08:53:01.197Z,18.61
2017-03-17T08:54:01.212Z,19.2
2017-03-17T08:55:01.256Z,19.45
2017-03-17T08:56:01.302Z,19.6
2017-03-17T08:57:01.319Z,19.7
2017-03-17T08:58:01.377Z,19.92
2017-03-17T08:59:01.405Z,20.07
2017-03-17T09:00:01.439Z,20.23
2017-03-17T09:01:01.456Z,20.41
2017-03-17T09:02:01.509Z,20.48
2017-03-17T09:03:01.559Z,20.25
2017-03-17T09:04:01.585Z,19.75
2017-03-17T09:05:01.620Z,19.27
2017-03-17T09:06:01.662Z,19.05
2017-03-17T09:07:01.693Z,19.02
2017-03-17T09:08:01.738Z,19.34
2017-03-17T09:09:01.777Z,19.8
2017-03-17T09:10:01.819Z,20.12
2017-03-17T09:11:01.840Z,20.35
2017-03-17T09:12:01.884Z,20.48
2017-03-17T09:13:01.915Z,20.78
2017-03-17T09:14:01.956Z,20.66
2017-03-17T09:15:01.991Z,20.34
2017-03-17T09:16:02.022Z,19.87
2017-03-17T09:17:02.067Z,19.47
2017-03-17T09:18:02.113Z,19.13
2017-03-17T09:19:02.147Z,18.72
2017-03-17T09:20:02.190Z,18.27
2017-03-17T09:21:02.230Z,17.79
2017-03-17T09:22:02.253Z,17.46
2017-03-17T09:23:02.295Z,17.24
2017-03-17T09:24:02.325Z,16.94
2017-03-17T09:25:02.359Z,16.48
2017-03-17T09:26:02.409Z,15.91
2017-03-17T09:27:02.456Z,15.49
2017-03-17T09:28:02.486Z,15.22
2017-03-17T09:29:02.559Z,14.85
2017-03-17T09:30:02.552Z,14.51
2017-03-17T09:31:02.589Z,14.23
2017-03-17T09:32:02.623Z,14.06
2017-03-17T09:33:02.663Z,13.86
2017-03-17T09:34:02.694Z,13.69
2017-03-17T09:35:02.732Z,13.69
2017-03-17T09:36:02.764Z,13.79
2017-03-17T09:37:02.799Z,13.65
2017-03-17T09:38:02.819Z,13.63
2017-03-17T09:39:02.872Z,13.57
2017-03-17T09:40:02.935Z,13.63
2017-03-17T09:41:02.968Z,13.62
2017-03-17T09:42:02.970Z,13.62
2017-03-17T09:43:02.997Z,13.65
2017-03-17T09:44:03.037Z,13.68
2017-03-17T09:45:03.072Z,13.78
2017-03-17T09:46:03.110Z,13.58
2017-03-17T09:47:03.140Z,13.65
2017-03-17T09:48:03.179Z,13.75
2017-03-17T09:49:03.205Z,13.76
2017-03-17T09:50:03.245Z,13.79
2017-03-17T09:51:03.280Z,13.72
2017-03-17T09:52:03.314Z,13.86
2017-03-17T09:53:03.347Z,13.88
2017-03-17T09:54:03.381Z,13.78
2017-03-17T09:55:03.416Z,13.72
2017-03-17T09:56:03.437Z,13.72
2017-03-17T09:57:03.468Z,13.73
2017-03-17T09:58:03.516Z,13.9
2017-03-17T09:59:03.552Z,13.81
2017-03-17T10:00:03.581Z,13.9
2017-03-17T10:01:03.617Z,13.9
2017-03-17T10:02:03.663Z,13.9
2017-03-17T10:03:03.719Z,13.72
2017-03-17T10:04:03.702Z,13.6
2017-03-17T10:05:03.754Z,13.5
2017-03-17T10:06:03.782Z,13.32
2017-03-17T10:07:03.814Z,13.27
2017-03-17T10:08:03.825Z,13.17
2017-03-17T10:09:03.890Z,13.1
2017-03-17T10:10:03.928Z,13.03
2017-03-17T10:11:03.979Z,12.98
2017-03-17T10:12:04.187Z,12.66
2017-03-17T10:13:04.020Z,12.58
2017-03-17T10:14:04.052Z,12.44
2017-03-17T10:15:04.308Z,12.36
2017-03-17T10:16:04.106Z,12.28
2017-03-17T10:17:04.128Z,12.23
2017-03-17T10:18:04.170Z,12.08
2017-03-17T10:19:04.210Z,11.95
2017-03-17T10:20:04.258Z,11.84
2017-03-17T10:21:04.276Z,11.67
2017-03-17T10:22:04.302Z,11.6
2017-03-17T10:23:04.331Z,11.53
2017-03-17T10:24:04.365Z,11.3
2017-03-17T10:25:04.424Z,11.24
2017-03-17T10:26:04.431Z,11.2
2017-03-17T10:27:04.471Z,11.13
2017-03-17T10:28:04.483Z,11.09
2017-03-17T10:29:04.531Z,11.02
2017-03-17T10:30:04.767Z,11.09
2017-03-17T10:31:04.585Z,10.92
2017-03-17T10:32:04.620Z,10.88
2017-03-17T10:33:04.652Z,10.8
2017-03-17T10:34:04.685Z,10.75
2017-03-17T10:35:04.821Z,10.69
2017-03-17T10:36:04.759Z,10.65
2017-03-17T10:37:04.777Z,10.58
2017-03-17T10:38:04.812Z,10.59
2017-03-17T10:39:04.852Z,10.59
2017-03-17T10:40:04.876Z,10.57
2017-03-17T10:41:04.906Z,10.41
2017-03-17T10:42:04.928Z,10.52
2017-03-17T10:43:04.975Z,10.44
2017-03-17T10:44:04.995Z,10.49
2017-03-17T10:45:05.051Z,10.44
2017-03-17T10:46:05.062Z,10.44
2017-03-17T10:47:05.092Z,10.31
2017-03-17T10:48:05.129Z,10.35
2017-03-17T10:49:05.144Z,10.35
2017-03-17T10:50:05.169Z,10.35
2017-03-17T10:51:05.201Z,10.33
2017-03-17T10:52:05.242Z,10.32
2017-03-17T10:53:05.272Z,10.33
2017-03-17T10:54:05.313Z,10.32
2017-03-17T10:55:05.343Z,10.25
2017-03-17T10:56:05.370Z,10.26
2017-03-17T10:57:05.401Z,10.25
2017-03-17T10:58:05.420Z,10.21
2017-03-17T10:59:05.462Z,10.23
2017-03-17T11:00:05.488Z,10.18
2017-03-17T11:01:05.530Z,10.18
2017-03-17T11:02:05.547Z,10.2
2017-03-17T11:03:05.567Z,10.02
2017-03-17T11:04:05.621Z,10.08
2017-03-17T11:05:05.641Z,10.07
2017-03-17T11:06:05.679Z,9.96
2017-03-17T11:07:05.702Z,9.96
2017-03-17T11:08:05.733Z,9.95
2017-03-17T11:09:05.771Z,9.9
2017-03-17T11:10:05.831Z,9.88
2017-03-17T11:11:05.828Z,9.92
2017-03-17T11:12:05.860Z,9.82
2017-03-17T11:13:05.891Z,9.85
2017-03-17T11:14:05.923Z,9.93
2017-03-17T11:15:05.963Z,9.89
2017-03-17T11:16:06.008Z,9.93
2017-03-17T11:17:06.011Z,9.96
2017-03-17T11:18:06.035Z,10.02
2017-03-17T11:19:06.060Z,10.07
2017-03-17T11:20:06.101Z,10.05
2017-03-17T11:21:06.125Z,10.17
2017-03-17T11:22:06.164Z,10.14
2017-03-17T11:23:06.193Z,10.23
2017-03-17T11:24:06.225Z,10.25
2017-03-17T11:25:06.244Z,10.36
2017-03-17T11:26:06.277Z,10.52
2017-03-17T11:27:06.337Z,10.59
2017-03-17T11:28:06.358Z,10.57
2017-03-17T11:29:06.370Z,10.57
2017-03-17T11:30:06.408Z,10.65
2017-03-17T11:31:06.454Z,10.67
2017-03-17T11:32:06.470Z,10.69
2017-03-17T11:33:06.496Z,10.67
2017-03-17T11:34:06.529Z,10.69
2017-03-17T11:35:06.555Z,10.67
2017-03-17T11:36:06.613Z,10.67
2017-03-17T11:37:06.621Z,10.58
2017-03-17T11:38:06.647Z,10.61
2017-03-17T11:39:06.678Z,10.54
2017-03-17T11:40:06.712Z,10.59
2017-03-17T11:41:06.797Z,10.69
2017-03-17T11:42:06.781Z,10.84
2017-03-17T11:43:06.816Z,10.98
2017-03-17T11:44:06.841Z,11.16
2017-03-17T11:45:06.868Z,11.52
2017-03-17T11:46:06.894Z,11.86
2017-03-17T11:47:06.932Z,11.98
2017-03-17T11:48:06.951Z,12.1
2017-03-17T11:49:06.990Z,12.16
2017-03-17T11:50:07.026Z,12.05
2017-03-17T11:51:07.053Z,11.85
2017-03-17T11:52:07.081Z,11.86
2017-03-17T11:53:07.113Z,11.7
2017-03-17T11:54:07.149Z,11.75
2017-03-17T11:55:07.478Z,11.75
2017-03-17T11:56:07.195Z,11.91
2017-03-17T11:57:07.235Z,12.08
2017-03-17T11:58:07.272Z,12.13
2017-03-17T11:59:07.300Z,12.23
2017-03-17T12:00:07.773Z,12.23
2017-03-17T12:01:07.367Z,12.34
2017-03-17T12:02:07.379Z,12.31
2017-03-17T12:03:07.436Z,12.23
2017-03-17T12:04:07.466Z,12.22
2017-03-17T12:05:07.500Z,12.19
2017-03-17T12:06:07.516Z,12.22
2017-03-17T12:07:07.548Z,12.31
2017-03-17T12:08:07.582Z,12.36
2017-03-17T12:09:07.644Z,12.62
2017-03-17T12:10:07.642Z,12.73
2017-03-17T12:11:07.676Z,12.86
2017-03-17T12:12:07.704Z,12.83
2017-03-17T12:13:07.732Z,12.98
2017-03-17T12:14:07.778Z,12.99
2017-03-17T12:15:07.806Z,12.96
2017-03-17T12:16:07.839Z,12.83
2017-03-17T12:17:07.867Z,12.69
2017-03-17T12:18:07.875Z,12.66
2017-03-17T12:19:07.935Z,12.7
2017-03-17T12:20:07.969Z,12.77
2017-03-17T12:21:07.998Z,12.84
2017-03-17T12:22:08.030Z,12.84
2017-03-17T12:23:08.086Z,12.84
2017-03-17T12:24:08.100Z,12.91
2017-03-17T12:25:08.109Z,13.03
2017-03-17T12:26:08.159Z,12.96
2017-03-17T12:27:08.195Z,12.99
2017-03-17T12:28:08.249Z,13.09
2017-03-17T12:29:08.278Z,13.09
2017-03-17T12:30:08.275Z,13.21
2017-03-17T12:31:08.323Z,13.35
2017-03-17T12:32:08.339Z,13.42
2017-03-17T12:33:08.398Z,13.48
2017-03-17T12:34:08.440Z,13.5
2017-03-17T12:35:08.458Z,13.48
2017-03-17T12:36:08.497Z,13.48
2017-03-17T12:37:08.513Z,13.65
2017-03-17T12:38:08.551Z,13.68
2017-03-17T12:39:08.584Z,13.62
2017-03-17T12:40:08.611Z,13.57
2017-03-17T12:41:08.650Z,13.5
2017-03-17T12:42:08.707Z,13.5
2017-03-17T12:43:08.733Z,13.42
2017-03-17T12:44:08.747Z,13.31
2017-03-17T12:45:08.792Z,13.19
2017-03-17T12:46:08.810Z,13.19
2017-03-17T12:47:08.850Z,13.14
2017-03-17T12:48:08.877Z,13.17
2017-03-17T12:49:08.903Z,13.1
2017-03-17T12:50:08.956Z,13.07
2017-03-17T12:51:08.961Z,12.95
2017-03-17T12:52:09.004Z,12.95
2017-03-17T12:53:09.035Z,13.01
2017-03-17T12:54:09.070Z,12.88
2017-03-17T12:55:09.108Z,12.8
2017-03-17T12:56:09.134Z,12.78
2017-03-17T12:57:09.170Z,12.74
2017-03-17T12:58:09.199Z,12.73
2017-03-17T12:59:09.229Z,12.78
2017-03-17T13:00:09.264Z,12.84
2017-03-17T13:01:09.298Z,12.88
2017-03-17T13:02:09.328Z,12.92
2017-03-17T13:03:09.352Z,12.94
2017-03-17T13:04:09.419Z,13.01
2017-03-17T13:05:09.424Z,12.92
2017-03-17T13:06:09.460Z,12.84
2017-03-17T13:07:09.475Z,12.83
2017-03-17T13:08:09.514Z,12.92
2017-03-17T13:09:09.563Z,12.94
2017-03-17T13:10:09.586Z,13.01
2017-03-17T13:11:09.617Z,13.14
2017-03-17T13:12:09.650Z,13.11
2017-03-17T13:13:09.719Z,13.16